Time;durP1;ratioP1;P1;durP2;ratioP2;P2;SDS_P1;SDS_P2;PMS_P1;PMS_P2;Temp;Humidity;BMP_temperature;BMP_pressure;BME280_temperature;BME280_humidity;BME280_pressure;Samples;Min_cycle;Max_cycle;Signal;HPM_P1;HPM_P2
2022/07/16 00:02:19;;;;;;;5.93;3.10;;;17.80;99.90;;;;;;5106221;28;20376;-82
2022/07/16 00:05:05;;;;;;;3.20;2.00;;;17.70;99.90;;;;;;5105705;28;20419;-80
2022/07/16 00:07:49;;;;;;;2.60;2.30;;;17.70;99.90;;;;;;5088648;28;20435;-82
2022/07/16 00:10:34;;;;;;;6.20;2.37;;;17.60;99.90;;;;;;5091101;28;20436;-82
2022/07/16 00:13:22;;;;;;;2.90;2.60;;;17.70;99.90;;;;;;5089010;28;20380;-81
2022/07/16 00:16:11;;;;;;;4.43;2.70;;;17.70;99.90;;;;;;5104251;28;20387;-79
2022/07/16 00:21:53;;;;;;;4.83;3.03;;;17.60;99.90;;;;;;5104918;28;20395;-82
2022/07/16 00:24:40;;;;;;;2.47;2.23;;;17.50;99.90;;;;;;5103594;28;20502;-81
2022/07/16 00:27:24;;;;;;;7.47;2.73;;;17.50;99.90;;;;;;5103915;28;20578;-82
2022/07/16 00:30:09;;;;;;;7.33;1.90;;;17.40;99.90;;;;;;5102888;28;20405;-80
2022/07/16 00:32:54;;;;;;;6.47;2.87;;;17.30;99.90;;;;;;5104026;28;20423;-80
2022/07/16 00:35:38;;;;;;;2.87;2.60;;;17.20;99.90;;;;;;5112315;28;20437;-80
2022/07/16 00:38:23;;;;;;;3.13;2.57;;;17.20;99.90;;;;;;5108078;28;20883;-82
2022/07/16 00:41:16;;;;;;;6.80;2.83;;;17.10;99.90;;;;;;5103313;28;20384;-81
2022/07/16 00:44:04;;;;;;;2.07;1.93;;;17.00;99.90;;;;;;5090419;28;20489;-82
2022/07/16 00:47:08;;;;;;;2.97;2.70;;;17.00;99.90;;;;;;5060652;28;20483;-82
2022/07/16 00:49:52;;;;;;;5.30;2.53;;;17.20;99.90;;;;;;5046785;28;20428;-82
2022/07/16 00:52:37;;;;;;;3.20;2.03;;;17.10;99.90;;;;;;5060419;28;20440;-82
2022/07/16 00:55:21;;;;;;;2.70;2.50;;;17.00;99.90;;;;;;5060352;28;20414;-82
2022/07/16 00:58:06;;;;;;;5.00;2.40;;;17.00;99.90;;;;;;5060508;28;20401;-82
2022/07/16 01:00:50;;;;;;;3.90;2.50;;;17.00;99.90;;;;;;5075099;28;20471;-83
2022/07/16 01:03:35;;;;;;;4.10;2.67;;;17.00;99.90;;;;;;5066260;28;20389;-83
2022/07/16 01:06:22;;;;;;;2.87;2.67;;;17.00;99.90;;;;;;5080339;28;20983;-83
2022/07/16 01:09:08;;;;;;;2.77;2.57;;;16.80;99.90;;;;;;5051766;28;20439;-82
2022/07/16 01:11:52;;;;;;;2.60;2.40;;;16.80;99.90;;;;;;5079493;28;20424;-83
2022/07/16 01:14:37;;;;;;;3.97;3.43;;;16.70;99.90;;;;;;5079268;28;20393;-83
2022/07/16 01:17:22;;;;;;;4.07;2.63;;;16.70;99.90;;;;;;5092694;28;20418;-82
2022/07/16 01:20:07;;;;;;;4.63;2.77;;;16.70;99.90;;;;;;5122571;28;20406;-83
2022/07/16 01:22:53;;;;;;;2.50;2.30;;;16.60;99.90;;;;;;5122314;28;20391;-82
2022/07/16 01:25:38;;;;;;;3.73;3.40;;;16.60;99.90;;;;;;5122707;28;20432;-82
2022/07/16 01:28:23;;;;;;;3.23;2.70;;;16.60;99.90;;;;;;5122821;28;20425;-82
2022/07/16 01:31:07;;;;;;;4.93;2.87;;;16.60;99.90;;;;;;5123230;28;20368;-82
2022/07/16 01:37:00;;;;;;;4.57;2.90;;;16.50;99.90;;;;;;5120073;28;20374;-81
2022/07/16 01:39:44;;;;;;;8.43;3.40;;;16.40;99.90;;;;;;5122302;28;20410;-82
2022/07/16 01:42:28;;;;;;;8.40;2.90;;;16.40;99.90;;;;;;5122476;28;20371;-82
2022/07/16 01:45:12;;;;;;;5.10;2.87;;;16.40;99.90;;;;;;5122221;28;20457;-82
2022/07/16 01:47:58;;;;;;;4.30;2.70;;;16.30;99.90;;;;;;5122191;28;20550;-81
2022/07/16 01:50:43;;;;;;;7.57;2.67;;;16.30;99.90;;;;;;5121702;28;20383;-82
2022/07/16 01:53:29;;;;;;;4.20;3.10;;;16.20;99.90;;;;;;5122244;28;20898;-81
2022/07/16 01:56:13;;;;;;;3.23;2.30;;;16.20;99.90;;;;;;5121850;28;20472;-81
2022/07/16 01:58:57;;;;;;;2.00;1.80;;;16.20;99.90;;;;;;5121866;28;20391;-82
2022/07/16 02:01:42;;;;;;;3.77;3.37;;;16.20;99.90;;;;;;5121799;28;20411;-82
2022/07/16 02:04:27;;;;;;;3.90;2.90;;;16.10;99.90;;;;;;5121832;28;20440;-82
2022/07/16 02:07:11;;;;;;;3.57;2.80;;;16.00;99.90;;;;;;5105638;28;20450;-82
2022/07/16 02:09:56;;;;;;;3.87;2.73;;;16.00;99.90;;;;;;5121457;28;20414;-81
2022/07/16 02:12:40;;;;;;;3.80;3.17;;;16.00;99.90;;;;;;5105836;28;20387;-82
2022/07/16 02:15:24;;;;;;;2.83;2.30;;;16.00;99.90;;;;;;5121803;28;20383;-82
2022/07/16 02:18:08;;;;;;;2.13;1.93;;;15.80;99.90;;;;;;5121998;28;20417;-82
2022/07/16 02:20:54;;;;;;;3.53;2.60;;;15.80;99.90;;;;;;5120687;28;20436;-81
2022/07/16 02:23:38;;;;;;;2.97;2.70;;;15.70;99.90;;;;;;5120535;28;20414;-82
2022/07/16 02:26:22;;;;;;;3.30;3.00;;;15.60;99.90;;;;;;5121387;28;20545;-82
2022/07/16 02:29:07;;;;;;;6.30;3.13;;;15.40;99.90;;;;;;5121197;28;20452;-82
2022/07/16 02:31:51;;;;;;;2.67;2.47;;;15.40;99.90;;;;;;5121260;28;20422;-83
2022/07/16 02:34:36;;;;;;;3.07;2.87;;;15.20;99.90;;;;;;5121232;28;20391;-82
2022/07/16 02:37:21;;;;;;;2.97;2.70;;;15.00;99.90;;;;;;5121233;28;20825;-82
2022/07/16 02:40:06;;;;;;;4.07;2.93;;;15.10;99.90;;;;;;5120632;28;20445;-82
2022/07/16 02:42:51;;;;;;;3.83;2.73;;;14.50;99.90;;;;;;5121212;28;20395;-82
2022/07/16 02:45:38;;;;;;;2.43;2.23;;;14.20;99.90;;;;;;5120614;28;20391;-82
2022/07/16 02:48:22;;;;;;;4.50;3.33;;;14.20;99.90;;;;;;5120887;28;20541;-83
2022/07/16 02:51:07;;;;;;;3.17;2.90;;;14.40;99.90;;;;;;5120944;28;20371;-82
2022/07/16 02:53:51;;;;;;;8.10;4.47;;;14.20;99.90;;;;;;5120619;28;20725;-82
2022/07/16 02:56:36;;;;;;;4.23;2.60;;;14.20;99.90;;;;;;5121197;28;20468;-83
2022/07/16 02:59:21;;;;;;;3.23;3.00;;;14.00;99.90;;;;;;5120333;28;20443;-82
2022/07/16 03:02:06;;;;;;;4.30;2.50;;;14.20;99.90;;;;;;5120354;28;20476;-82
2022/07/16 03:04:52;;;;;;;2.53;2.30;;;14.30;99.90;;;;;;5123467;28;20429;-83
2022/07/16 03:07:37;;;;;;;3.10;2.70;;;14.60;99.90;;;;;;5119997;28;20470;-82
2022/07/16 03:10:21;;;;;;;3.10;2.87;;;14.90;99.90;;;;;;5119777;28;20387;-81
2022/07/16 03:13:06;;;;;;;4.33;2.33;;;14.90;99.90;;;;;;5121373;28;20383;-82
2022/07/16 03:15:50;;;;;;;6.10;3.20;;;15.00;99.90;;;;;;5120185;28;20437;-81
2022/07/16 03:18:35;;;;;;;2.90;2.40;;;14.60;99.90;;;;;;5119668;28;20391;-80
2022/07/16 03:21:18;;;;;;;3.73;3.23;;;14.70;99.90;;;;;;5119299;28;20379;-82
2022/07/16 03:24:03;;;;;;;5.97;3.17;;;14.80;99.90;;;;;;5120488;28;20387;-82
2022/07/16 03:26:47;;;;;;;4.67;3.37;;;14.10;99.90;;;;;;5120094;28;20434;-82
2022/07/16 03:29:31;;;;;;;4.17;3.13;;;13.70;99.90;;;;;;5119572;28;20387;-81
2022/07/16 03:32:16;;;;;;;3.00;2.70;;;13.60;99.90;;;;;;5120160;28;20413;-82
2022/07/16 03:35:05;;;;;;;2.83;2.23;;;13.70;99.90;;;;;;5119782;28;20457;-82
2022/07/16 03:40:45;;;;;;;4.00;3.03;;;13.50;99.90;;;;;;5120394;28;20383;-82
2022/07/16 03:43:29;;;;;;;4.50;2.50;;;13.70;99.90;;;;;;5120361;28;20383;-82
2022/07/16 03:46:13;;;;;;;2.77;2.57;;;14.30;99.90;;;;;;5116669;28;20495;-83
2022/07/16 03:48:58;;;;;;;2.67;2.47;;;14.60;99.90;;;;;;5118901;28;20408;-82
2022/07/16 03:51:43;;;;;;;3.50;3.10;;;14.70;99.90;;;;;;5120760;28;20436;-82
2022/07/16 03:54:27;;;;;;;3.20;3.00;;;14.80;99.90;;;;;;5103999;28;20395;-82
2022/07/16 03:57:11;;;;;;;3.30;3.00;;;14.80;99.90;;;;;;5118236;28;20822;-82
2022/07/16 03:59:56;;;;;;;2.77;2.57;;;14.80;99.90;;;;;;5125742;28;20510;-82
2022/07/16 04:02:40;;;;;;;3.73;2.50;;;14.60;99.90;;;;;;5140988;28;20521;-82
2022/07/16 04:05:25;;;;;;;3.10;2.80;;;14.50;99.90;;;;;;5141255;28;20383;-82
2022/07/16 04:08:09;;;;;;;3.47;3.17;;;13.80;99.90;;;;;;5140326;28;20507;-82
2022/07/16 04:10:53;;;;;;;7.70;3.53;;;13.40;99.90;;;;;;5141714;28;20795;-82
2022/07/16 04:13:38;;;;;;;4.53;3.13;;;13.30;99.90;;;;;;5141668;28;20466;-82
2022/07/16 04:16:23;;;;;;;4.37;3.40;;;13.40;99.90;;;;;;5141171;28;20386;-82
2022/07/16 04:19:08;;;;;;;6.40;3.77;;;13.40;99.90;;;;;;5141226;28;20394;-81
2022/07/16 04:21:52;;;;;;;4.03;3.00;;;13.30;99.90;;;;;;5125276;28;20390;-82
2022/07/16 04:24:36;;;;;;;5.57;3.80;;;13.20;99.90;;;;;;5141326;28;20390;-81
2022/07/16 04:27:21;;;;;;;7.57;3.70;;;13.20;99.90;;;;;;5141404;28;20495;-79
2022/07/16 04:30:07;;;;;;;5.20;3.73;;;13.40;99.90;;;;;;5143988;28;20383;-79
2022/07/16 04:32:52;;;;;;;5.97;2.90;;;13.10;99.90;;;;;;5142632;28;20451;-83
2022/07/16 04:35:37;;;;;;;4.40;2.77;;;13.10;99.90;;;;;;5141119;28;20792;-82
2022/07/16 04:38:21;;;;;;;6.10;2.90;;;13.10;99.90;;;;;;5141009;28;20390;-82
2022/07/16 04:41:05;;;;;;;3.73;3.23;;;13.20;99.90;;;;;;5141040;28;20409;-82
2022/07/16 04:43:50;;;;;;;3.40;3.10;;;13.30;99.90;;;;;;5141819;28;20505;-81
2022/07/16 04:46:34;;;;;;;3.63;3.33;;;13.30;99.90;;;;;;5126553;27;20430;-82
2022/07/16 04:49:18;;;;;;;3.60;3.27;;;13.60;99.90;;;;;;5144994;27;20426;-82
2022/07/16 04:52:03;;;;;;;4.67;3.63;;;13.70;99.90;;;;;;5146171;27;20386;-79
2022/07/16 04:54:48;;;;;;;3.90;3.37;;;13.60;99.90;;;;;;5146904;27;20401;-81
2022/07/16 04:57:32;;;;;;;4.73;4.30;;;13.70;99.90;;;;;;5144991;27;20507;-79
2022/07/16 05:00:17;;;;;;;5.67;3.23;;;13.80;99.90;;;;;;5148187;27;20787;-79
2022/07/16 05:03:02;;;;;;;3.00;2.80;;;14.10;99.90;;;;;;5147468;27;20944;-79
2022/07/16 05:05:47;;;;;;;3.80;3.33;;;14.20;99.90;;;;;;5145300;27;20379;-82
2022/07/16 05:08:31;;;;;;;3.10;2.80;;;13.90;99.90;;;;;;5144840;27;20488;-82
2022/07/16 05:11:16;;;;;;;10.03;3.80;;;14.20;99.90;;;;;;5144484;27;20378;-83
2022/07/16 05:14:01;;;;;;;8.13;4.03;;;14.20;99.90;;;;;;5144661;27;20390;-82
2022/07/16 05:16:45;;;;;;;3.27;2.87;;;14.10;99.90;;;;;;5144009;27;20379;-82
2022/07/16 05:19:30;;;;;;;5.57;3.17;;;13.60;99.90;;;;;;5145268;27;20460;-83
2022/07/16 05:22:14;;;;;;;5.00;4.10;;;13.60;99.90;;;;;;5144012;27;20383;-84
2022/07/16 05:24:58;;;;;;;3.90;3.20;;;13.60;99.90;;;;;;5145547;27;20416;-81
2022/07/16 05:27:43;;;;;;;3.13;2.83;;;13.60;99.90;;;;;;5144651;27;20515;-81
2022/07/16 05:30:27;;;;;;;6.95;3.88;;;13.90;99.90;;;;;;5144025;27;20424;-82
2022/07/16 05:33:12;;;;;;;4.70;3.97;;;14.40;99.90;;;;;;5129140;27;20157;-82
2022/07/16 05:35:57;;;;;;;3.53;3.23;;;14.30;99.90;;;;;;5144527;27;20390;-83
2022/07/16 05:38:41;;;;;;;2.60;2.40;;;14.10;99.90;;;;;;5143889;27;20456;-83
2022/07/16 05:41:26;;;;;;;4.00;2.80;;;14.40;99.90;;;;;;5144113;27;20409;-82
2022/07/16 05:44:10;;;;;;;3.10;2.80;;;14.60;99.90;;;;;;5144162;27;20436;-82
2022/07/16 05:46:54;;;;;;;2.87;2.60;;;14.60;99.90;;;;;;5143812;27;20477;-82
2022/07/16 05:49:38;;;;;;;3.30;3.00;;;14.40;99.90;;;;;;5127690;27;20728;-83
2022/07/16 05:52:24;;;;;;;6.10;3.10;;;14.50;99.90;;;;;;5143772;27;20414;-83
2022/07/16 05:55:08;;;;;;;6.07;3.37;;;14.40;99.90;;;;;;5143618;27;20374;-82
2022/07/16 05:57:53;;;;;;;3.70;3.00;;;14.60;99.90;;;;;;5143001;27;20390;-82
2022/07/16 06:00:37;;;;;;;3.67;2.90;;;14.50;99.90;;;;;;5143496;27;20535;-82
2022/07/16 06:03:22;;;;;;;3.20;2.90;;;14.80;99.90;;;;;;5149161;27;20394;-81
2022/07/16 06:06:06;;;;;;;3.37;3.10;;;15.10;99.90;;;;;;5147624;27;20397;-79
2022/07/16 06:08:50;;;;;;;3.43;3.17;;;15.10;99.90;;;;;;5134141;27;20432;-82
2022/07/16 06:11:35;;;;;;;6.80;3.47;;;15.40;99.90;;;;;;5154898;27;20374;-81
2022/07/16 06:14:19;;;;;;;3.70;3.40;;;15.40;99.90;;;;;;5156151;27;20386;-83
2022/07/16 06:17:04;;;;;;;5.37;3.23;;;15.40;99.90;;;;;;5153846;27;20463;-80
2022/07/16 06:19:48;;;;;;;4.97;3.40;;;15.50;99.90;;;;;;5147574;27;20386;-82
2022/07/16 06:22:33;;;;;;;2.90;2.70;;;15.30;99.90;;;;;;5147181;27;20772;-80
2022/07/16 06:25:17;;;;;;;3.57;3.27;;;15.30;99.90;;;;;;5148078;27;20450;-80
2022/07/16 06:28:01;;;;;;;2.90;2.47;;;15.60;99.90;;;;;;5148069;27;20460;-80
2022/07/16 06:30:45;;;;;;;2.40;2.20;;;15.80;99.90;;;;;;5150122;27;20869;-79
2022/07/16 06:33:30;;;;;;;2.70;2.50;;;16.00;99.90;;;;;;5149164;27;20873;-81
2022/07/16 06:36:14;;;;;;;2.70;2.50;;;16.20;99.90;;;;;;5150642;27;20394;-82
2022/07/16 06:38:59;;;;;;;3.67;2.33;;;16.20;99.90;;;;;;5151101;27;20428;-82
2022/07/16 06:41:44;;;;;;;2.80;2.60;;;16.50;99.90;;;;;;5148390;27;20438;-79
2022/07/16 06:44:28;;;;;;;2.63;2.43;;;16.70;99.90;;;;;;5146872;27;20754;-79
2022/07/16 06:47:12;;;;;;;4.70;2.50;;;17.10;99.90;;;;;;5145869;27;20993;-78
2022/07/16 06:49:56;;;;;;;3.00;2.33;;;17.20;99.90;;;;;;5134563;27;20374;-80
2022/07/16 06:52:41;;;;;;;5.10;2.80;;;17.30;99.90;;;;;;5151355;27;20395;-81
2022/07/16 06:55:25;;;;;;;5.10;2.93;;;17.70;99.90;;;;;;5153360;27;20410;-79
2022/07/16 06:58:10;;;;;;;2.97;2.60;;;17.90;99.90;;;;;;5154933;27;20397;-80
2022/07/16 07:00:55;;;;;;;2.83;2.53;;;18.10;99.90;;;;;;5151553;27;20458;-80
2022/07/16 07:03:40;;;;;;;6.70;3.40;;;18.20;99.90;;;;;;5156656;27;20504;-80
2022/07/16 07:06:25;;;;;;;7.73;2.90;;;17.90;99.90;;;;;;5149371;27;20987;-79
2022/07/16 07:09:09;;;;;;;2.40;2.20;;;18.30;99.90;;;;;;5132662;27;20482;-79
2022/07/16 07:11:54;;;;;;;3.43;3.10;;;18.50;99.90;;;;;;5150248;27;20417;-82
2022/07/16 07:14:38;;;;;;;9.63;2.27;;;18.40;99.90;;;;;;5145175;27;20424;-82
2022/07/16 07:17:23;;;;;;;3.40;2.77;;;18.60;99.90;;;;;;5141977;27;20504;-82
2022/07/16 07:20:08;;;;;;;3.10;2.37;;;18.80;99.90;;;;;;5142236;27;20493;-82
2022/07/16 07:22:52;;;;;;;4.20;2.70;;;18.90;99.90;;;;;;5142437;27;20374;-82
2022/07/16 07:25:37;;;;;;;8.80;2.30;;;18.90;99.90;;;;;;5141273;27;20386;-82
2022/07/16 07:28:21;;;;;;;3.53;2.50;;;19.00;99.90;;;;;;5141511;27;20454;-82
2022/07/16 07:31:05;;;;;;;10.63;2.60;;;19.20;99.90;;;;;;5141553;27;20884;-84
2022/07/16 07:33:50;;;;;;;2.17;1.97;;;19.10;99.90;;;;;;5141926;27;20386;-83
2022/07/16 07:36:34;;;;;;;3.40;2.13;;;19.20;99.90;;;;;;5142444;27;20414;-83
2022/07/16 07:39:18;;;;;;;2.30;2.07;;;19.40;99.90;;;;;;5142235;27;20431;-83
2022/07/16 07:42:03;;;;;;;3.77;2.27;;;19.60;99.90;;;;;;5141181;27;20394;-83
2022/07/16 07:44:47;;;;;;;2.83;2.20;;;19.90;99.90;;;;;;5141155;27;20392;-83
2022/07/16 07:47:31;;;;;;;4.20;2.70;;;20.00;99.90;;;;;;5140843;27;20457;-83
2022/07/16 07:50:16;;;;;;;2.97;1.97;;;19.80;99.90;;;;;;5092363;28;20443;-82
2022/07/16 07:53:00;;;;;;;9.10;2.20;;;20.10;99.90;;;;;;5100053;28;20407;-83
2022/07/16 07:55:45;;;;;;;3.47;2.17;;;20.10;99.90;;;;;;5099224;28;20423;-82
2022/07/16 07:58:29;;;;;;;2.43;1.90;;;20.40;99.90;;;;;;5098369;28;20726;-83
2022/07/16 08:01:14;;;;;;;2.07;1.67;;;20.60;99.90;;;;;;5099950;28;20529;-83
2022/07/16 08:03:59;;;;;;;3.60;2.00;;;20.70;99.90;;;;;;5099565;28;20384;-82
2022/07/16 08:06:43;;;;;;;6.03;1.67;;;20.90;99.90;;;;;;5099360;28;20444;-83
2022/07/16 08:09:27;;;;;;;4.40;2.40;;;21.00;99.90;;;;;;5099083;28;20388;-83
2022/07/16 08:12:12;;;;;;;6.33;2.17;;;21.10;99.90;;;;;;5099204;28;20384;-83
2022/07/16 08:14:57;;;;;;;3.33;2.30;;;21.10;99.90;;;;;;5098870;28;20445;-81
2022/07/16 08:17:41;;;;;;;5.70;1.87;;;21.20;99.90;;;;;;5099374;28;20434;-80
2022/07/16 08:20:26;;;;;;;2.63;2.10;;;21.10;99.90;;;;;;5100579;28;20384;-82
2022/07/16 08:23:11;;;;;;;2.90;1.90;;;21.30;99.90;;;;;;5105055;28;20391;-81
2022/07/16 08:25:55;;;;;;;4.63;2.30;;;21.40;99.90;;;;;;5105615;28;20395;-82
2022/07/16 08:28:41;;;;;;;1.93;1.60;;;21.50;99.90;;;;;;5104689;28;20403;-80
2022/07/16 08:31:25;;;;;;;2.33;2.13;;;21.60;99.90;;;;;;5089283;28;20808;-82
2022/07/16 08:34:10;;;;;;;4.70;2.70;;;21.70;99.90;;;;;;5088472;28;20492;-81
2022/07/16 08:36:54;;;;;;;3.33;2.70;;;21.80;99.90;;;;;;5101785;28;20445;-82
2022/07/16 08:39:42;;;;;;;7.13;2.43;;;21.80;99.90;;;;;;5104389;28;20456;-80
2022/07/16 08:42:26;;;;;;;3.70;2.40;;;21.90;99.90;;;;;;5108994;28;20415;-81
2022/07/16 08:45:13;;;;;;;3.40;2.07;;;22.10;99.90;;;;;;5103517;28;20418;-82
2022/07/16 08:47:59;;;;;;;4.03;2.40;;;22.00;99.90;;;;;;5104626;28;20520;-80
2022/07/16 08:50:45;;;;;;;5.00;2.47;;;22.20;99.90;;;;;;5087502;28;20407;-79
2022/07/16 08:53:31;;;;;;;1.80;1.70;;;22.40;99.90;;;;;;5108957;28;20528;-78
2022/07/16 08:56:17;;;;;;;3.63;2.03;;;22.50;99.90;;;;;;5104409;28;20444;-79
2022/07/16 08:59:02;;;;;;;3.57;2.23;;;22.50;99.90;;;;;;5103001;28;20395;-79
2022/07/16 09:01:47;;;;;;;3.47;1.90;;;22.40;99.90;;;;;;5105077;28;20557;-79
2022/07/16 09:04:31;;;;;;;2.60;1.90;;;22.70;99.90;;;;;;5103758;28;20487;-82
2022/07/16 09:07:18;;;;;;;2.90;2.30;;;22.60;99.90;;;;;;5107988;28;20463;-78
2022/07/16 09:10:05;;;;;;;2.07;1.90;;;22.50;99.90;;;;;;5103374;28;20954;-82
2022/07/16 09:12:49;;;;;;;3.90;2.07;;;22.50;97.70;;;;;;5107173;28;20383;-81
2022/07/16 09:15:36;;;;;;;4.03;2.30;;;22.30;98.20;;;;;;5107874;28;20396;-82
2022/07/16 09:18:24;;;;;;;10.30;2.40;;;22.30;97.90;;;;;;5104189;28;20467;-80
2022/07/16 09:21:08;;;;;;;1.87;1.67;;;22.60;99.90;;;;;;5105157;28;20529;-80
2022/07/16 09:23:53;;;;;;;5.20;2.03;;;22.60;99.90;;;;;;5106313;28;20933;-82
2022/07/16 09:26:37;;;;;;;2.17;1.60;;;22.70;99.90;;;;;;5103739;28;20438;-81
2022/07/16 09:29:21;;;;;;;3.73;2.13;;;22.60;96.30;;;;;;5104314;28;20456;-79
2022/07/16 09:32:06;;;;;;;3.90;2.87;;;22.70;96.90;;;;;;5103448;28;20395;-82
2022/07/16 09:35:05;;;;;;;3.33;2.20;;;22.80;99.90;;;;;;5102884;28;20409;-82
2022/07/16 09:37:59;;;;;;;4.13;2.60;;;22.80;99.90;;;;;;5102842;28;20754;-82
2022/07/16 09:40:46;;;;;;;2.60;2.27;;;22.80;98.60;;;;;;5102288;28;20429;-82
2022/07/16 09:43:31;;;;;;;3.87;2.30;;;22.30;98.60;;;;;;5100469;28;20431;-81
2022/07/16 09:46:20;;;;;;;7.53;2.60;;;22.70;99.90;;;;;;5099882;28;20422;-82
2022/07/16 09:49:04;;;;;;;3.50;2.20;;;22.80;98.80;;;;;;5101916;28;20419;-82
2022/07/16 09:51:49;;;;;;;3.17;2.60;;;22.90;99.90;;;;;;5101577;28;20426;-80
2022/07/16 09:54:36;;;;;;;5.97;2.37;;;23.10;98.10;;;;;;5101054;28;20483;-80
2022/07/16 09:57:21;;;;;;;2.17;1.90;;;23.10;98.00;;;;;;5101365;28;20459;-82
2022/07/16 10:00:08;;;;;;;18.87;2.63;;;22.90;95.20;;;;;;5100110;28;20520;-81
2022/07/16 10:02:53;;;;;;;5.00;2.00;;;22.50;95.00;;;;;;5099220;28;20396;-82
2022/07/16 10:05:38;;;;;;;9.70;2.07;;;22.90;96.40;;;;;;5097937;28;20396;-80
2022/07/16 10:08:23;;;;;;;1.90;1.80;;;23.10;96.00;;;;;;5099569;28;20444;-82
2022/07/16 10:11:07;;;;;;;3.60;2.20;;;23.30;95.40;;;;;;5099911;28;20388;-82
2022/07/16 10:13:53;;;;;;;2.13;1.90;;;23.30;96.70;;;;;;5101672;28;20499;-82
2022/07/16 10:16:41;;;;;;;2.10;2.00;;;23.40;95.50;;;;;;5101991;28;20416;-81
2022/07/16 10:19:34;;;;;;;2.40;2.20;;;23.60;95.70;;;;;;5101751;28;20434;-83
2022/07/16 10:22:26;;;;;;;2.70;2.10;;;23.60;96.30;;;;;;5114561;27;20473;-82
2022/07/16 10:25:30;;;;;;;2.23;2.03;;;23.70;95.70;;;;;;5116415;28;20412;-83
2022/07/16 10:28:36;;;;;;;2.13;2.00;;;23.70;94.80;;;;;;5114446;28;20927;-81
2022/07/16 10:32:26;;;;;;;3.43;1.90;;;23.60;95.40;;;;;;5105079;28;20412;-82
2022/07/16 10:34:46;;;;;;;2.47;2.27;;;23.50;94.60;;;;;;5114573;28;20446;-81
2022/07/16 10:37:33;;;;;;;2.23;1.83;;;23.40;94.30;;;;;;5102410;28;20435;-82
2022/07/16 10:40:23;;;;;;;4.10;2.20;;;23.40;95.10;;;;;;5104540;28;20427;-82
2022/07/16 10:43:23;;;;;;;2.90;1.70;;;23.40;95.10;;;;;;5101242;28;20403;-81
2022/07/16 10:46:09;;;;;;;4.20;2.43;;;23.40;95.40;;;;;;5101268;28;20391;-82
2022/07/16 10:49:14;;;;;;;2.90;1.80;;;23.50;95.20;;;;;;5099424;28;20786;-82
2022/07/16 10:52:03;;;;;;;2.27;1.80;;;23.80;94.10;;;;;;5100486;28;20715;-82
2022/07/16 10:55:04;;;;;;;2.63;1.90;;;23.90;94.00;;;;;;5099528;28;20431;-82
2022/07/16 10:57:51;;;;;;;2.30;2.10;;;24.30;94.10;;;;;;5098415;28;20392;-81
2022/07/16 11:00:35;;;;;;;2.43;2.10;;;24.00;93.30;;;;;;5098242;28;20478;-82
2022/07/16 11:03:23;;;;;;;2.20;2.00;;;24.50;92.70;;;;;;5100498;28;20392;-82
2022/07/16 11:06:08;;;;;;;2.30;2.10;;;24.70;93.60;;;;;;5100932;28;20407;-82
2022/07/16 11:08:54;;;;;;;1.90;1.80;;;24.80;92.00;;;;;;5101280;28;20392;-82
2022/07/16 11:11:40;;;;;;;2.50;2.00;;;24.70;91.70;;;;;;5100608;28;20429;-82
2022/07/16 11:14:46;;;;;;;2.63;2.40;;;24.50;93.00;;;;;;5100859;28;20462;-81
2022/07/16 11:17:31;;;;;;;2.10;2.00;;;24.50;90.70;;;;;;5099725;28;20444;-81
2022/07/16 11:20:15;;;;;;;3.77;2.30;;;24.50;93.60;;;;;;5086262;28;20475;-83
2022/07/16 11:23:07;;;;;;;5.10;2.00;;;25.00;91.40;;;;;;5099763;28;20441;-82
2022/07/16 11:26:00;;;;;;;4.87;2.50;;;25.20;92.00;;;;;;5084793;28;20431;-82
2022/07/16 11:28:54;;;;;;;6.10;2.67;;;25.50;93.20;;;;;;5071128;28;20396;-82
2022/07/16 11:31:38;;;;;;;3.10;2.20;;;25.60;89.30;;;;;;5098081;28;20476;-83
2022/07/16 11:34:22;;;;;;;3.07;2.33;;;25.10;90.60;;;;;;5098092;28;20376;-81
2022/07/16 11:37:07;;;;;;;4.60;2.37;;;24.80;89.60;;;;;;5096581;28;20403;-80
2022/07/16 11:39:59;;;;;;;5.20;1.83;;;24.70;90.30;;;;;;5100895;28;20387;-81
2022/07/16 11:42:43;;;;;;;4.93;2.00;;;24.70;89.80;;;;;;5073371;28;20480;-81
2022/07/16 11:45:28;;;;;;;2.43;2.23;;;24.70;90.20;;;;;;5102081;28;20410;-82
2022/07/16 11:48:14;;;;;;;4.87;2.40;;;24.70;91.90;;;;;;5093016;28;20800;-82
2022/07/16 11:51:07;;;;;;;2.07;1.93;;;24.70;91.70;;;;;;5102006;28;20436;-82
2022/07/16 11:53:54;;;;;;;2.67;2.47;;;25.30;90.10;;;;;;5102288;28;20383;-80
2022/07/16 11:56:41;;;;;;;2.70;2.27;;;25.70;88.20;;;;;;5101928;28;20473;-83
2022/07/16 11:59:28;;;;;;;2.03;1.83;;;25.90;88.80;;;;;;5107196;28;20452;-82
2022/07/16 12:02:18;;;;;;;3.10;2.30;;;26.40;84.60;;;;;;5103569;28;20498;-82
2022/07/16 12:05:06;;;;;;;2.57;2.10;;;26.40;85.40;;;;;;5104921;28;20388;-81
2022/07/16 12:07:52;;;;;;;2.53;2.33;;;26.50;85.00;;;;;;5087137;28;20443;-82
2022/07/16 12:11:00;;;;;;;2.43;2.23;;;26.50;80.60;;;;;;5101472;28;20452;-83
2022/07/16 12:13:54;;;;;;;2.20;2.00;;;26.70;80.30;;;;;;5038998;28;20497;-81
2022/07/16 12:16:53;;;;;;;2.40;2.20;;;26.70;77.80;;;;;;5011059;28;20477;-81
2022/07/16 12:19:38;;;;;;;2.33;2.13;;;27.20;77.70;;;;;;5039250;28;20385;-81
2022/07/16 12:22:46;;;;;;;3.33;2.17;;;27.20;76.60;;;;;;5012428;28;20453;-81
2022/07/16 12:25:36;;;;;;;3.60;2.53;;;27.50;81.20;;;;;;5027483;28;20382;-79
2022/07/16 12:28:24;;;;;;;3.30;2.37;;;27.90;76.20;;;;;;5026597;28;20501;-82
2022/07/16 12:31:11;;;;;;;3.10;2.87;;;28.00;71.60;;;;;;5011739;28;20430;-80
2022/07/16 12:33:57;;;;;;;3.40;3.10;;;28.20;72.70;;;;;;5019623;28;20183;-82
2022/07/16 12:36:45;;;;;;;2.40;1.90;;;28.00;74.80;;;;;;4981680;28;20488;-82
2022/07/16 12:39:32;;;;;;;3.03;2.17;;;28.00;73.30;;;;;;4980232;28;20205;-82
2022/07/16 12:42:17;;;;;;;3.90;2.30;;;27.90;71.10;;;;;;4968150;28;20513;-81
2022/07/16 12:45:03;;;;;;;2.40;2.20;;;27.10;76.00;;;;;;4966605;28;20494;-82
2022/07/16 12:47:47;;;;;;;2.47;1.93;;;26.80;76.60;;;;;;5000308;28;20507;-82
2022/07/16 12:50:32;;;;;;;3.77;2.40;;;26.40;74.80;;;;;;4999057;28;20429;-81
2022/07/16 12:53:18;;;;;;;2.53;2.00;;;26.50;75.80;;;;;;4949520;29;20498;-82
2022/07/16 12:59:05;;;;;;;2.63;2.20;;;27.40;73.90;;;;;;4960050;29;20457;-82
2022/07/16 13:01:51;;;;;;;2.50;2.07;;;28.20;70.40;;;;;;4891321;29;20503;-82
2022/07/16 13:04:36;;;;;;;2.43;2.10;;;28.60;70.80;;;;;;4881528;29;20456;-82
2022/07/16 13:07:21;;;;;;;3.95;2.00;;;28.90;66.40;;;;;;4910706;29;20488;-81
2022/07/16 13:10:07;;;;;;;2.92;2.15;;;29.10;68.00;;;;;;4901402;29;20164;-82
2022/07/16 13:12:52;;;;;;;4.40;2.23;;;28.60;71.30;;;;;;4915732;29;20251;-82
2022/07/16 13:15:37;;;;;;;4.20;2.80;;;28.50;66.00;;;;;;4933944;29;20186;-82
2022/07/16 13:18:23;;;;;;;2.80;2.30;;;28.00;67.20;;;;;;4933110;29;20205;-82
2022/07/16 13:21:09;;;;;;;4.20;2.40;;;27.70;70.50;;;;;;4946295;29;20427;-82
2022/07/16 13:23:57;;;;;;;3.67;2.00;;;27.20;71.40;;;;;;4966627;28;20412;-80
2022/07/16 13:26:43;;;;;;;2.80;2.27;;;26.80;71.80;;;;;;4976459;28;20443;-81
2022/07/16 13:29:48;;;;;;;2.40;2.20;;;27.10;74.20;;;;;;4993348;28;20455;-81
2022/07/16 13:32:32;;;;;;;2.30;2.10;;;27.30;72.60;;;;;;4976808;28;20532;-81
2022/07/16 13:35:19;;;;;;;4.87;2.30;;;28.00;70.80;;;;;;4996168;28;20425;-82
2022/07/16 13:38:04;;;;;;;2.90;2.10;;;28.20;67.10;;;;;;5042365;28;20418;-82
2022/07/16 13:40:50;;;;;;;2.27;2.03;;;28.00;65.90;;;;;;5006903;28;20410;-82
2022/07/16 13:43:35;;;;;;;2.40;2.20;;;28.10;66.00;;;;;;5005665;28;20438;-83
2022/07/16 13:46:20;;;;;;;2.90;2.57;;;28.00;67.00;;;;;;5021793;28;20457;-82
2022/07/16 13:49:04;;;;;;;5.60;2.17;;;27.60;67.10;;;;;;4994989;28;20391;-82
2022/07/16 13:51:48;;;;;;;2.43;1.87;;;27.10;71.10;;;;;;5007379;28;20402;-81
2022/07/16 13:54:33;;;;;;;2.17;1.97;;;26.80;71.10;;;;;;5019939;28;20574;-83
2022/07/16 14:00:21;;;;;;;3.50;2.40;;;26.50;71.90;;;;;;5030607;28;20576;-82
2022/07/16 14:03:06;;;;;;;3.90;2.80;;;26.90;71.60;;;;;;5060540;28;20441;-82
2022/07/16 14:05:52;;;;;;;2.33;2.13;;;27.60;69.60;;;;;;5080911;28;20447;-81
2022/07/16 14:08:37;;;;;;;4.67;2.93;;;28.20;68.60;;;;;;5080427;28;20432;-84
2022/07/16 14:11:22;;;;;;;2.90;2.17;;;28.50;65.90;;;;;;5091639;28;20521;-80
2022/07/16 14:14:06;;;;;;;2.53;2.33;;;28.10;67.40;;;;;;5091836;28;20379;-81
2022/07/16 14:16:51;;;;;;;7.13;2.27;;;27.70;68.30;;;;;;5079073;28;20395;-81
2022/07/16 14:19:36;;;;;;;3.33;2.10;;;27.50;64.40;;;;;;5108193;28;20395;-83
2022/07/16 14:22:20;;;;;;;2.10;2.00;;;27.50;67.10;;;;;;5094000;28;20449;-82
2022/07/16 14:25:05;;;;;;;2.80;2.20;;;27.70;68.90;;;;;;5091800;28;20486;-82
2022/07/16 14:27:50;;;;;;;2.77;2.57;;;27.70;66.80;;;;;;5106662;28;20470;-82
2022/07/16 14:30:40;;;;;;;2.40;2.20;;;27.50;68.70;;;;;;5107142;28;20468;-83
2022/07/16 14:33:25;;;;;;;2.43;2.23;;;27.10;67.70;;;;;;5046198;28;20410;-82
2022/07/16 14:36:09;;;;;;;3.00;2.00;;;26.80;69.60;;;;;;5030653;28;20398;-82
2022/07/16 14:38:54;;;;;;;2.97;2.27;;;26.60;69.60;;;;;;5029834;28;20473;-82